Time;durP1;ratioP1;P1;durP2;ratioP2;P2;SDS_P1;SDS_P2;PMS_P1;PMS_P2;Temp;Humidity;BMP_temperature;BMP_pressure;BME280_temperature;BME280_humidity;BME280_pressure;Samples;Min_cycle;Max_cycle;Signal;HPM_P1;HPM_P2
2021/05/31 00:00:55;;;;;;;;;;;;;;;22.15;45.53;102235.56;2203938;39;115640;-52
2021/05/31 00:02:27;;;;;;;;;;;;;;;22.15;46.14;102230.78;2203008;39;115559;-53
2021/05/31 00:03:59;;;;;;;;;;;;;;;22.16;45.73;102228.81;2204733;39;113584;-52
2021/05/31 00:05:31;;;;;;;;;;;;;;;22.16;45.59;102228.81;2203521;39;114026;-53
2021/05/31 00:07:03;;;;;;;;;;;;;;;22.16;45.97;102229.66;2207086;39;114014;-53
2021/05/31 00:08:35;;;;;;;;;;;;;;;22.17;45.74;102236.09;2203020;39;113647;-53
2021/05/31 00:10:07;;;;;;;;;;;;;;;22.17;45.93;102233.28;2204129;39;114562;-53
2021/05/31 00:11:39;;;;;;;;;;;;;;;22.16;45.84;102229.66;2204304;39;113754;-53
2021/05/31 00:13:11;;;;;;;;;;;;;;;22.15;46.08;102230.78;2203232;39;114188;-53
2021/05/31 00:14:43;;;;;;;;;;;;;;;22.16;45.91;102224.03;2204561;39;114201;-53
2021/05/31 00:16:14;;;;;;;;;;;;;;;22.15;46.39;102230.78;2203390;39;113684;-53
2021/05/31 00:17:48;;;;;;;;;;;;;;;22.16;46.21;102237.25;2203422;39;113933;-53
2021/05/31 00:19:20;;;;;;;;;;;;;;;22.16;46.19;102226.84;2204511;39;113888;-54
2021/05/31 00:20:52;;;;;;;;;;;;;;;22.15;46.40;102221.47;2204230;39;113794;-53
2021/05/31 00:22:24;;;;;;;;;;;;;;;22.14;46.41;102226.28;2206768;39;113921;-52
2021/05/31 00:23:55;;;;;;;;;;;;;;;22.15;46.52;102224.31;2213659;39;113535;-54
2021/05/31 00:25:27;;;;;;;;;;;;;;;22.16;46.34;102223.19;2209989;39;115306;-53
2021/05/31 00:26:59;;;;;;;;;;;;;;;22.15;46.40;102215.84;2203990;39;115469;-53
2021/05/31 00:28:30;;;;;;;;;;;;;;;22.17;46.27;102219.19;2201466;39;115742;-53
2021/05/31 00:30:03;;;;;;;;;;;;;;;22.15;46.66;102224.31;2208323;39;115099;-53
2021/05/31 00:31:35;;;;;;;;;;;;;;;22.15;46.33;102216.69;2210424;39;114874;-52
2021/05/31 00:33:06;;;;;;;;;;;;;;;22.15;46.54;102218.66;2205417;39;115117;-53
2021/05/31 00:34:38;;;;;;;;;;;;;;;22.14;46.44;102212.19;2209546;39;115338;-53
2021/05/31 00:36:10;;;;;;;;;;;;;;;22.15;46.75;102213.03;2203568;39;115007;-54
2021/05/31 00:37:42;;;;;;;;;;;;;;;22.13;46.56;102212.47;2206576;39;115071;-53
2021/05/31 00:39:14;;;;;;;;;;;;;;;22.14;46.54;102211.34;2204467;39;114824;-52
2021/05/31 00:40:45;;;;;;;;;;;;;;;22.15;46.66;102205.44;2205281;39;114919;-53
2021/05/31 00:42:17;;;;;;;;;;;;;;;22.13;46.77;102213.31;2207623;39;114909;-53
2021/05/31 00:43:49;;;;;;;;;;;;;;;22.13;46.78;102209.66;2208675;39;114949;-53
2021/05/31 00:45:21;;;;;;;;;;;;;;;22.14;46.81;102200.09;2206631;39;115055;-53
2021/05/31 00:46:53;;;;;;;;;;;;;;;22.14;46.97;102202.91;2204277;39;115521;-53
2021/05/31 00:48:25;;;;;;;;;;;;;;;22.12;47.37;102200.38;2209291;39;114560;-52
2021/05/31 00:49:57;;;;;;;;;;;;;;;22.14;46.80;102208.53;2208759;39;116358;-52
2021/05/31 00:51:29;;;;;;;;;;;;;;;22.14;47.26;102198.13;2209247;39;115430;-52
2021/05/31 00:53:01;;;;;;;;;;;;;;;22.14;46.89;102197.28;2206073;39;116166;-53
2021/05/31 00:54:33;;;;;;;;;;;;;;;22.14;46.83;102191.63;2211607;39;115530;-52
2021/05/31 00:56:05;;;;;;;;;;;;;;;22.14;46.80;102197.28;2204156;39;115764;-53
2021/05/31 00:57:37;;;;;;;;;;;;;;;22.15;47.18;102193.34;2203202;39;115667;-53
2021/05/31 00:59:09;;;;;;;;;;;;;;;22.12;47.27;102196.75;2200745;39;115743;-53
2021/05/31 01:00:42;;;;;;;;;;;;;;;22.12;47.00;102196.75;2208539;39;115685;-53
2021/05/31 01:02:14;;;;;;;;;;;;;;;22.13;47.05;102195.59;2205947;39;115464;-54
2021/05/31 01:03:45;;;;;;;;;;;;;;;22.15;47.26;102193.34;2206953;39;115976;-53
2021/05/31 01:05:17;;;;;;;;;;;;;;;22.14;47.38;102197.28;2205467;39;115667;-53
2021/05/31 01:06:51;;;;;;;;;;;;;;;22.12;47.09;102194.75;2212286;39;115644;-52
2021/05/31 01:08:26;;;;;;;;;;;;;;;22.12;47.64;102194.75;2210315;39;113787;-52
2021/05/31 01:10:07;;;;;;;;;;;;;;;22.14;47.53;102189.69;2200107;39;113813;-51
2021/05/31 01:11:44;;;;;;;;;;;;;;;22.14;47.24;102194.47;2205814;39;113791;-54
2021/05/31 01:13:25;;;;;;;;;;;;;;;22.15;47.73;102190.53;2199993;39;114010;-52
2021/05/31 01:15:04;;;;;;;;;;;;;;;22.14;47.88;102186.84;2207446;39;113985;-51
2021/05/31 01:16:40;;;;;;;;;;;;;;;22.13;47.52;102185.16;2206972;39;113870;-51
2021/05/31 01:18:21;;;;;;;;;;;;;;;22.14;47.61;102186.84;2206227;39;113841;-51
2021/05/31 01:19:53;;;;;;;;;;;;;;;22.15;47.21;102184.88;2199162;39;114048;-53
2021/05/31 01:21:24;;;;;;;;;;;;;;;22.15;47.42;102182.91;2203740;39;114230;-54
2021/05/31 01:22:57;;;;;;;;;;;;;;;22.14;47.48;102183.19;2206663;39;113705;-54
2021/05/31 01:24:38;;;;;;;;;;;;;;;22.14;47.65;102186.84;2204929;39;114001;-54
2021/05/31 01:26:19;;;;;;;;;;;;;;;22.13;47.69;102190.78;2205921;39;113741;-54
2021/05/31 01:27:52;;;;;;;;;;;;;;;22.13;47.69;102179.53;2210182;39;114006;-54
2021/05/31 01:29:25;;;;;;;;;;;;;;;22.13;47.69;102185.16;2206060;39;114066;-54
2021/05/31 01:30:58;;;;;;;;;;;;;;;22.16;47.95;102187.44;2210642;39;113850;-56
2021/05/31 01:32:35;;;;;;;;;;;;;;;22.16;47.97;102181.78;2201631;39;113848;-54
2021/05/31 01:34:08;;;;;;;;;;;;;;;22.16;47.84;102184.59;2203041;39;115076;-54
2021/05/31 01:35:39;;;;;;;;;;;;;;;22.14;47.65;102181.22;2204698;39;115497;-52
2021/05/31 01:37:14;;;;;;;;;;;;;;;22.11;48.06;102179.00;2204144;39;115055;-51
2021/05/31 01:38:48;;;;;;;;;;;;;;;22.14;48.00;102183.19;2206451;39;116189;-52
2021/05/31 01:40:22;;;;;;;;;;;;;;;22.14;48.12;102178.41;2203080;39;113981;-52
2021/05/31 01:41:54;;;;;;;;;;;;;;;22.13;47.79;102173.91;2208098;39;115346;-52
2021/05/31 01:43:26;;;;;;;;;;;;;;;22.14;47.79;102174.75;2202915;39;115379;-52
2021/05/31 01:44:59;;;;;;;;;;;;;;;22.14;48.14;102177.56;2207678;39;114983;-54
2021/05/31 01:46:31;;;;;;;;;;;;;;;22.13;48.09;102178.69;2208121;39;114990;-54
2021/05/31 01:48:03;;;;;;;;;;;;;;;22.15;48.16;102177.28;2209581;39;115253;-56
2021/05/31 01:49:36;;;;;;;;;;;;;;;22.13;48.26;102178.69;2209223;39;114923;-55
2021/05/31 01:51:08;;;;;;;;;;;;;;;22.13;48.30;102182.34;2208616;39;115384;-51
2021/05/31 01:52:41;;;;;;;;;;;;;;;22.14;48.42;102171.94;2212395;39;114953;-52
2021/05/31 01:54:14;;;;;;;;;;;;;;;22.15;48.51;102176.44;2210626;39;114844;-52
2021/05/31 01:55:48;;;;;;;;;;;;;;;22.14;48.40;102171.94;2209449;39;115930;-52
2021/05/31 01:57:20;;;;;;;;;;;;;;;22.15;48.28;102170.81;2203280;39;115987;-51
2021/05/31 01:58:53;;;;;;;;;;;;;;;22.15;48.50;102176.44;2203127;39;114671;-51
2021/05/31 02:00:25;;;;;;;;;;;;;;;22.16;48.46;102166.88;2208113;39;114891;-54
2021/05/31 02:01:56;;;;;;;;;;;;;;;22.15;48.81;102168.84;2210976;39;115535;-54
2021/05/31 02:03:29;;;;;;;;;;;;;;;22.13;48.62;102173.91;2210540;39;115600;-54
2021/05/31 02:05:00;;;;;;;;;;;;;;;22.14;48.78;102174.75;2215355;39;115698;-54
2021/05/31 02:06:32;;;;;;;;;;;;;;;22.13;48.57;102175.88;2198713;39;114687;-54
2021/05/31 02:08:03;;;;;;;;;;;;;;;22.14;48.62;102172.78;2201821;39;115496;-54
2021/05/31 02:09:35;;;;;;;;;;;;;;;22.13;48.60;102173.06;2204138;39;115901;-51
2021/05/31 02:11:13;;;;;;;;;;;;;;;22.13;48.71;102167.44;2209106;39;116561;-52
2021/05/31 02:12:50;;;;;;;;;;;;;;;22.14;49.09;102166.31;2203485;39;116148;-55
2021/05/31 02:14:31;;;;;;;;;;;;;;;22.13;48.96;102167.44;2215101;39;114671;-54
2021/05/31 02:16:06;;;;;;;;;;;;;;;22.11;49.17;102164.94;2209842;39;113673;-53
2021/05/31 02:17:39;;;;;;;;;;;;;;;22.13;48.87;102159.00;2209262;39;113994;-54
2021/05/31 02:19:15;;;;;;;;;;;;;;;22.11;48.83;102159.28;2210410;39;114092;-54
2021/05/31 02:20:49;;;;;;;;;;;;;;;22.12;49.02;102162.97;2209172;39;113737;-53
2021/05/31 02:22:22;;;;;;;;;;;;;;;22.13;49.05;102170.25;2204415;39;113712;-54
2021/05/31 02:23:54;;;;;;;;;;;;;;;22.13;48.85;102162.66;2203819;39;113762;-55
2021/05/31 02:25:26;;;;;;;;;;;;;;;22.15;48.77;102166.03;2208861;39;113942;-53
2021/05/31 02:26:58;;;;;;;;;;;;;;;22.15;49.00;102166.03;2206608;39;113912;-54
2021/05/31 02:28:30;;;;;;;;;;;;;;;22.18;48.52;102167.41;2214350;39;114551;-53
2021/05/31 02:30:03;;;;;;;;;;;;;;;22.14;48.79;102161.53;2205472;39;113780;-54
2021/05/31 02:31:34;;;;;;;;;;;;;;;22.13;48.88;102164.63;2209125;39;113903;-54
2021/05/31 02:33:06;;;;;;;;;;;;;;;22.13;48.84;102165.47;2209562;39;114167;-53
2021/05/31 02:34:38;;;;;;;;;;;;;;;22.14;48.62;102161.53;2200793;39;114096;-54
2021/05/31 02:36:10;;;;;;;;;;;;;;;22.11;48.86;102166.91;2208473;39;113803;-54
2021/05/31 02:37:41;;;;;;;;;;;;;;;22.10;49.17;102157.59;2209264;39;115474;-53
2021/05/31 02:39:14;;;;;;;;;;;;;;;22.13;49.02;102159.00;2201904;39;114942;-55
2021/05/31 02:40:45;;;;;;;;;;;;;;;22.12;48.98;102155.31;2206865;39;114899;-54
2021/05/31 02:42:17;;;;;;;;;;;;;;;22.13;48.99;102156.16;2201115;39;115279;-53
2021/05/31 02:43:48;;;;;;;;;;;;;;;22.12;49.00;102160.16;2206989;39;115079;-54
2021/05/31 02:45:22;;;;;;;;;;;;;;;22.11;48.81;102156.47;2211276;39;114966;-54
2021/05/31 02:46:54;;;;;;;;;;;;;;;22.10;48.75;102153.94;2206152;39;114916;-51
2021/05/31 02:48:26;;;;;;;;;;;;;;;22.10;49.02;102151.13;2210144;39;115001;-52
2021/05/31 02:49:58;;;;;;;;;;;;;;;22.10;48.71;102151.13;2201137;39;114903;-52
2021/05/31 02:51:29;;;;;;;;;;;;;;;22.12;48.94;102151.69;2203098;39;114912;-51
2021/05/31 02:53:01;;;;;;;;;;;;;;;22.10;48.94;102153.94;2210490;39;115071;-52
2021/05/31 02:54:33;;;;;;;;;;;;;;;22.10;48.76;102148.31;2202058;39;115894;-52
2021/05/31 02:56:07;;;;;;;;;;;;;;;22.10;48.72;102154.78;2207827;39;114404;-54
2021/05/31 02:57:39;;;;;;;;;;;;;;;22.08;48.99;102153.38;2212279;39;115556;-54
2021/05/31 02:59:10;;;;;;;;;;;;;;;22.08;49.27;102145.78;2196503;39;115828;-54
2021/05/31 03:00:42;;;;;;;;;;;;;;;22.09;49.02;102152.25;2204437;39;115864;-53
2021/05/31 03:02:14;;;;;;;;;;;;;;;22.10;48.74;102148.31;2204115;39;115782;-53
2021/05/31 03:03:46;;;;;;;;;;;;;;;22.08;48.95;102148.59;2204564;39;114636;-54
2021/05/31 03:05:19;;;;;;;;;;;;;;;22.08;48.78;102147.75;2205859;39;115557;-54
2021/05/31 03:06:53;;;;;;;;;;;;;;;22.09;48.82;102153.09;2205855;39;115393;-54
2021/05/31 03:08:26;;;;;;;;;;;;;;;22.10;48.75;102145.50;2210128;39;115892;-54
2021/05/31 03:09:57;;;;;;;;;;;;;;;22.09;48.81;102150.28;2209993;39;115382;-54
2021/05/31 03:11:30;;;;;;;;;;;;;;;22.08;49.01;102147.75;2205891;39;115718;-52
2021/05/31 03:13:02;;;;;;;;;;;;;;;22.09;48.70;102143.81;2211845;39;115416;-51
2021/05/31 03:14:34;;;;;;;;;;;;;;;22.09;49.17;102147.47;2209004;39;115802;-51
2021/05/31 03:16:06;;;;;;;;;;;;;;;22.08;49.20;102133.69;2201048;39;115497;-52
2021/05/31 03:17:39;;;;;;;;;;;;;;;22.08;49.36;102130.88;2204541;39;115734;-56
2021/05/31 03:19:11;;;;;;;;;;;;;;;22.08;48.76;102131.72;2205691;39;115437;-52
2021/05/31 03:20:43;;;;;;;;;;;;;;;22.07;48.98;102137.66;2209701;39;115526;-51
2021/05/31 03:22:15;;;;;;;;;;;;;;;22.06;49.33;102130.34;2198139;39;114660;-52
2021/05/31 03:23:47;;;;;;;;;;;;;;;22.06;48.91;102130.34;2202620;39;113860;-51
2021/05/31 03:25:19;;;;;;;;;;;;;;;22.07;49.15;102132.88;2198309;39;113700;-54
2021/05/31 03:26:51;;;;;;;;;;;;;;;22.05;48.81;102125.81;2202016;39;113941;-52
2021/05/31 03:28:24;;;;;;;;;;;;;;;22.05;49.17;102137.09;2204262;39;113769;-51
2021/05/31 03:29:56;;;;;;;;;;;;;;;22.03;49.18;102134.53;2201750;39;113645;-51
2021/05/31 03:31:31;;;;;;;;;;;;;;;22.05;49.24;102131.47;2200390;39;113797;-51
2021/05/31 03:33:04;;;;;;;;;;;;;;;22.04;49.30;102129.75;2203154;39;113748;-52
2021/05/31 03:34:36;;;;;;;;;;;;;;;22.04;48.87;102132.59;2201372;39;114000;-53
2021/05/31 03:36:08;;;;;;;;;;;;;;;22.04;49.26;102132.59;2199315;39;113927;-55
2021/05/31 03:37:40;;;;;;;;;;;;;;;22.03;49.26;102125.28;2203206;39;113758;-54
2021/05/31 03:39:13;;;;;;;;;;;;;;;22.03;49.53;102128.91;2204132;39;113875;-54
2021/05/31 03:40:45;;;;;;;;;;;;;;;22.04;49.36;102130.59;2204000;39;113594;-54
2021/05/31 03:42:17;;;;;;;;;;;;;;;22.05;49.25;102125.81;2200209;39;113972;-54
2021/05/31 03:43:49;;;;;;;;;;;;;;;22.05;49.19;102126.66;2200814;39;114786;-52
2021/05/31 03:45:22;;;;;;;;;;;;;;;22.05;49.61;102125.81;2204160;39;114905;-54
2021/05/31 03:46:54;;;;;;;;;;;;;;;22.03;49.46;102126.09;2199853;39;115115;-54
2021/05/31 03:48:26;;;;;;;;;;;;;;;22.03;49.81;102125.28;2199414;39;114801;-54
2021/05/31 03:49:58;;;;;;;;;;;;;;;22.04;49.56;102124.13;2200275;39;115518;-54
2021/05/31 03:51:30;;;;;;;;;;;;;;;22.04;49.59;102129.75;2200463;39;115081;-53
2021/05/31 03:53:02;;;;;;;;;;;;;;;22.03;49.38;102126.09;2204883;39;113890;-54
2021/05/31 03:54:34;;;;;;;;;;;;;;;22.02;49.38;102129.22;2204856;39;113943;-53
2021/05/31 03:56:07;;;;;;;;;;;;;;;22.02;49.44;102130.06;2203676;39;115165;-54
2021/05/31 03:57:40;;;;;;;;;;;;;;;22.01;49.53;102131.19;2203544;39;115002;-54
2021/05/31 03:59:12;;;;;;;;;;;;;;;22.01;49.46;102131.19;2200836;39;114864;-54
2021/05/31 04:00:44;;;;;;;;;;;;;;;22.01;49.32;102133.16;2202793;39;115463;-54
2021/05/31 04:02:16;;;;;;;;;;;;;;;22.01;49.45;102131.19;2204731;39;114050;-54
2021/05/31 04:03:48;;;;;;;;;;;;;;;22.00;49.73;102137.09;2203681;39;115131;-54
2021/05/31 04:05:22;;;;;;;;;;;;;;;22.02;49.85;102137.66;2199531;39;114554;-54
2021/05/31 04:11:32;;;;;;;;;;;;;;;22.00;49.64;102137.09;2202963;39;115661;-53
2021/05/31 04:11:56;;;;;;;;;;;;;;;22.00;49.87;102135.13;2198834;39;116027;-54
2021/05/31 04:13:28;;;;;;;;;;;;;;;22.01;49.68;102133.16;2197114;39;114608;-54
2021/05/31 04:15:00;;;;;;;;;;;;;;;22.02;49.18;102135.69;2202122;39;115653;-51
2021/05/31 04:16:32;;;;;;;;;;;;;;;22.02;49.39;102137.66;2198736;39;115907;-52
2021/05/31 04:18:04;;;;;;;;;;;;;;;22.02;49.60;102134.84;2208775;39;115427;-52
2021/05/31 04:19:37;;;;;;;;;;;;;;;22.03;49.31;102126.09;2202261;39;114610;-51
2021/05/31 04:21:09;;;;;;;;;;;;;;;21.99;49.35;102132.59;2203485;39;114556;-53
2021/05/31 04:22:41;;;;;;;;;;;;;;;21.99;49.86;102135.41;2207026;39;115206;-54
2021/05/31 04:24:13;;;;;;;;;;;;;;;22.00;49.29;102131.47;2205827;39;115634;-51
2021/05/31 04:25:45;;;;;;;;;;;;;;;21.99;49.64;102132.59;2207738;39;115677;-52
2021/05/31 04:27:17;;;;;;;;;;;;;;;21.99;49.78;102132.59;2205453;39;114125;-52
2021/05/31 04:28:49;;;;;;;;;;;;;;;21.99;49.24;102139.06;2209470;39;113700;-51
2021/05/31 04:30:22;;;;;;;;;;;;;;;21.98;49.45;102133.75;2202146;39;113811;-52
2021/05/31 04:31:54;;;;;;;;;;;;;;;21.97;49.48;102130.09;2207595;39;113940;-51
2021/05/31 04:33:26;;;;;;;;;;;;;;;21.97;49.22;102134.88;2200926;39;114125;-52
2021/05/31 04:34:58;;;;;;;;;;;;;;;21.97;49.62;102132.06;2204501;39;113861;-51
2021/05/31 04:36:30;;;;;;;;;;;;;;;21.97;49.30;102135.72;2205603;39;113902;-51
2021/05/31 04:38:02;;;;;;;;;;;;;;;21.96;49.57;102128.41;2205657;39;113585;-53
2021/05/31 04:39:34;;;;;;;;;;;;;;;21.95;49.46;102134.31;2210780;39;114086;-52
2021/05/31 04:41:07;;;;;;;;;;;;;;;21.95;49.21;102123.06;2207077;39;113996;-51
2021/05/31 04:42:39;;;;;;;;;;;;;;;21.95;49.67;102125.88;2200758;39;113670;-52
2021/05/31 04:44:11;;;;;;;;;;;;;;;21.94;49.69;102125.03;2202786;39;113878;-52
2021/05/31 04:45:43;;;;;;;;;;;;;;;21.95;49.90;102129.53;2210013;39;114269;-52
2021/05/31 04:47:15;;;;;;;;;;;;;;;21.95;49.89;102123.06;2209851;39;113682;-52
2021/05/31 04:48:47;;;;;;;;;;;;;;;21.97;49.96;102127.28;2212969;39;113906;-52
2021/05/31 04:50:19;;;;;;;;;;;;;;;22.03;50.05;102128.91;2200780;39;114277;-52
2021/05/31 04:51:51;;;;;;;;;;;;;;;22.05;50.16;102126.66;2206738;39;114885;-52
2021/05/31 04:53:26;;;;;;;;;;;;;;;22.08;50.10;102116.78;2208785;39;114977;-52
2021/05/31 04:54:58;;;;;;;;;;;;;;;22.09;49.93;102122.13;2207133;39;115021;-52
2021/05/31 04:56:30;;;;;;;;;;;;;;;22.13;50.12;102128.03;2211049;39;115526;-53
2021/05/31 04:58:03;;;;;;;;;;;;;;;22.15;50.18;102123.81;2208070;39;114610;-52
2021/05/31 04:59:35;;;;;;;;;;;;;;;22.17;49.98;102123.50;2197557;39;115102;-52
2021/05/31 05:01:06;;;;;;;;;;;;;;;22.22;50.17;102120.66;2206793;39;115347;-52
2021/05/31 05:02:39;;;;;;;;;;;;;;;22.26;50.18;102115.28;2203518;39;114641;-51
2021/05/31 05:04:11;;;;;;;;;;;;;;;22.29;50.74;102121.19;2194203;39;114781;-52
2021/05/31 05:05:43;;;;;;;;;;;;;;;22.34;50.60;102114.66;2203955;39;115224;-52
2021/05/31 05:07:14;;;;;;;;;;;;;;;22.37;50.21;102112.09;2206571;39;114848;-52
2021/05/31 05:08:47;;;;;;;;;;;;;;;22.41;50.23;102115.16;2209096;39;115587;-51
2021/05/31 05:10:19;;;;;;;;;;;;;;;22.46;50.11;102120.78;2209628;39;114946;-51
2021/05/31 05:11:51;;;;;;;;;;;;;;;22.49;50.08;102118.19;2210888;39;115463;-52
2021/05/31 05:13:24;;;;;;;;;;;;;;;22.55;49.97;102114.22;2205718;39;116968;-52
2021/05/31 05:14:56;;;;;;;;;;;;;;;22.60;49.93;102117.00;2203509;39;115619;-52
2021/05/31 05:16:28;;;;;;;;;;;;;;;22.65;49.64;102121.75;2204315;39;115526;-52
2021/05/31 05:18:00;;;;;;;;;;;;;;;22.70;49.68;102120.91;2204825;39;115547;-52
2021/05/31 05:19:32;;;;;;;;;;;;;;;22.75;49.54;102116.06;2206501;39;116113;-52
2021/05/31 05:21:04;;;;;;;;;;;;;;;22.79;50.02;102113.50;2210501;39;116035;-52
2021/05/31 05:22:37;;;;;;;;;;;;;;;22.84;49.61;102116.28;2210681;39;115635;-52
2021/05/31 05:24:11;;;;;;;;;;;;;;;22.88;49.33;102106.09;2210531;39;115669;-51
2021/05/31 05:25:45;;;;;;;;;;;;;;;22.93;49.46;102109.69;2209695;39;116094;-52
2021/05/31 05:27:17;;;;;;;;;;;;;;;22.97;49.19;102107.97;2206795;39;115685;-51
2021/05/31 05:28:49;;;;;;;;;;;;;;;23.01;49.00;102103.41;2210482;39;115602;-52
2021/05/31 05:30:22;;;;;;;;;;;;;;;23.06;48.90;102105.34;2205827;39;115715;-52
2021/05/31 05:31:54;;;;;;;;;;;;;;;23.10;48.77;102100.78;2200890;39;115562;-53
2021/05/31 05:33:26;;;;;;;;;;;;;;;23.13;48.71;102103.00;2204600;39;113794;-52
2021/05/31 05:35:07;;;;;;;;;;;;;;;23.17;48.59;102104.06;2206686;39;113847;-52
2021/05/31 05:40:02;;;;;;;;;;;;;;;23.30;48.48;102106.22;2207658;39;113836;-52
2021/05/31 05:41:42;;;;;;;;;;;;;;;23.33;48.41;102097.16;2207731;39;113603;-52
2021/05/31 05:48:02;;;;;;;;;;;;;;;23.53;48.52;102092.44;2209027;39;113782;-52
2021/05/31 05:49:34;;;;;;;;;;;;;;;23.58;48.30;102098.00;2210099;39;114044;-52
2021/05/31 05:51:08;;;;;;;;;;;;;;;23.61;48.23;102094.59;2205758;39;113633;-52
2021/05/31 05:52:40;;;;;;;;;;;;;;;23.64;48.00;102091.16;2206071;39;113940;-53
2021/05/31 05:54:12;;;;;;;;;;;;;;;23.67;48.03;102084.88;2209127;39;113950;-51
2021/05/31 05:55:44;;;;;;;;;;;;;;;23.71;48.01;102086.00;2210743;39;115005;-51
2021/05/31 05:57:16;;;;;;;;;;;;;;;23.74;48.01;102085.38;2208415;39;113897;-52
2021/05/31 05:58:50;;;;;;;;;;;;;;;23.76;47.98;102083.91;2209255;39;115554;-52
2021/05/31 06:00:23;;;;;;;;;;;;;;;23.79;47.65;102090.97;2210897;39;115235;-51
2021/05/31 06:01:55;;;;;;;;;;;;;;;23.82;48.08;102085.53;2210977;39;113944;-52
2021/05/31 06:03:27;;;;;;;;;;;;;;;23.86;48.03;102080.13;2211156;39;115414;-52
2021/05/31 06:04:59;;;;;;;;;;;;;;;23.87;47.89;102091.13;2204428;39;115006;-52
2021/05/31 06:06:31;;;;;;;;;;;;;;;23.90;48.00;102084.00;2204451;39;116114;-52
2021/05/31 06:08:04;;;;;;;;;;;;;;;23.91;47.88;102086.53;2205959;39;114026;-52
2021/05/31 06:09:36;;;;;;;;;;;;;;;23.94;47.49;102085.06;2210881;39;115259;-52
2021/05/31 06:11:08;;;;;;;;;;;;;;;23.96;47.90;102081.97;2211228;39;114900;-52
2021/05/31 06:12:40;;;;;;;;;;;;;;;23.98;47.59;102080.53;2211098;39;114852;-52
2021/05/31 06:14:12;;;;;;;;;;;;;;;24.00;47.83;102089.53;2203747;39;115309;-53
2021/05/31 06:15:44;;;;;;;;;;;;;;;24.01;47.38;102079.06;2210021;39;114814;-52
2021/05/31 06:17:16;;;;;;;;;;;;;;;24.02;47.18;102089.22;2207136;39;115776;-52
2021/05/31 06:18:50;;;;;;;;;;;;;;;24.04;47.05;102073.66;2207185;39;115704;-51
2021/05/31 06:20:22;;;;;;;;;;;;;;;24.04;47.07;102084.94;2210538;39;115239;-52
2021/05/31 06:21:54;;;;;;;;;;;;;;;24.06;47.03;102079.00;2205176;39;115741;-54
2021/05/31 06:23:26;;;;;;;;;;;;;;;24.06;47.18;102081.81;2205123;39;115682;-52
2021/05/31 06:24:58;;;;;;;;;;;;;;;24.06;47.15;102081.81;2209293;39;115839;-51
2021/05/31 06:26:31;;;;;;;;;;;;;;;24.07;47.20;102084.34;2210390;39;115531;-51
2021/05/31 06:28:05;;;;;;;;;;;;;;;24.08;47.40;102079.50;2204855;39;115108;-52
2021/05/31 06:29:37;;;;;;;;;;;;;;;24.09;47.31;102081.19;2204191;39;116003;-53
2021/05/31 06:31:09;;;;;;;;;;;;;;;24.09;47.41;102084.03;2212303;39;115395;-52
2021/05/31 06:32:41;;;;;;;;;;;;;;;24.09;47.21;102084.03;2206601;39;116194;-52
2021/05/31 06:34:13;;;;;;;;;;;;;;;24.10;47.19;102082.88;2200969;39;115973;-51
2021/05/31 06:35:48;;;;;;;;;;;;;;;24.10;47.19;102086.56;2202656;39;115010;-52
2021/05/31 06:37:20;;;;;;;;;;;;;;;24.11;47.15;102087.41;2205658;39;115560;-52
2021/05/31 06:38:52;;;;;;;;;;;;;;;24.10;47.10;102089.38;2208013;39;115901;-51
2021/05/31 06:40:25;;;;;;;;;;;;;;;24.10;47.13;102083.72;2206216;39;113918;-51
2021/05/31 06:41:57;;;;;;;;;;;;;;;24.10;47.02;102095.03;2200698;39;113770;-51
2021/05/31 06:43:30;;;;;;;;;;;;;;;24.11;46.90;102087.41;2203610;39;113991;-51
2021/05/31 06:45:03;;;;;;;;;;;;;;;24.11;47.52;102090.22;2205268;39;113642;-51
2021/05/31 06:46:37;;;;;;;;;;;;;;;24.10;47.25;102088.53;2206390;39;113996;-52
2021/05/31 06:48:13;;;;;;;;;;;;;;;24.10;47.37;102095.03;2205049;39;113748;-51
2021/05/31 06:49:46;;;;;;;;;;;;;;;24.10;47.32;102086.56;2205613;39;113706;-52
2021/05/31 06:51:18;;;;;;;;;;;;;;;24.09;47.40;102089.66;2206585;39;114390;-52
2021/05/31 06:52:50;;;;;;;;;;;;;;;24.09;47.40;102089.66;2206503;39;114095;-52
2021/05/31 06:54:24;;;;;;;;;;;;;;;24.10;47.52;102094.19;2206141;39;117422;-53
2021/05/31 06:56:00;;;;;;;;;;;;;;;24.09;47.28;102089.66;2200412;39;114010;-52
2021/05/31 06:57:33;;;;;;;;;;;;;;;24.08;47.28;102091.66;2199813;39;114210;-51
2021/05/31 06:59:05;;;;;;;;;;;;;;;24.08;47.10;102093.63;2198565;39;113966;-51
2021/05/31 07:00:37;;;;;;;;;;;;;;;24.08;47.25;102083.19;2206768;39;113980;-52
2021/05/31 07:02:09;;;;;;;;;;;;;;;24.07;47.26;102081.53;2205334;39;114799;-52
2021/05/31 07:03:42;;;;;;;;;;;;;;;24.06;47.00;102087.47;2206543;39;114883;-52
2021/05/31 07:05:14;;;;;;;;;;;;;;;24.05;47.14;102086.63;2199566;39;114845;-52
2021/05/31 07:06:48;;;;;;;;;;;;;;;24.05;47.12;102086.63;2204293;39;115186;-52
2021/05/31 07:08:23;;;;;;;;;;;;;;;24.05;47.20;102085.78;2205500;39;115231;-52
2021/05/31 07:09:56;;;;;;;;;;;;;;;24.05;47.27;102085.78;2205227;39;115008;-52
2021/05/31 07:11:28;;;;;;;;;;;;;;;24.04;47.28;102084.09;2204853;39;115098;-52
2021/05/31 07:13:02;;;;;;;;;;;;;;;24.04;47.30;102084.94;2206910;39;114312;-52
2021/05/31 07:14:36;;;;;;;;;;;;;;;24.03;47.31;102080.44;2197542;39;115158;-52
2021/05/31 07:16:13;;;;;;;;;;;;;;;24.04;47.28;102084.94;2202837;39;113899;-53
2021/05/31 07:17:46;;;;;;;;;;;;;;;24.03;47.08;102086.06;2204793;39;115046;-52
2021/05/31 07:19:20;;;;;;;;;;;;;;;24.02;47.14;102086.41;2204541;39;114052;-52
2021/05/31 07:20:54;;;;;;;;;;;;;;;24.01;47.19;102091.22;2208330;39;114749;-52
2021/05/31 07:22:27;;;;;;;;;;;;;;;24.00;47.00;102083.88;2209478;39;113823;-52
2021/05/31 07:23:59;;;;;;;;;;;;;;;24.00;47.31;102083.88;2205847;39;116050;-52
2021/05/31 07:25:31;;;;;;;;;;;;;;;24.00;47.31;102075.41;2205788;39;115470;-52
2021/05/31 07:27:04;;;;;;;;;;;;;;;23.99;47.42;102082.19;2205109;39;115102;-52
2021/05/31 07:28:36;;;;;;;;;;;;;;;23.98;47.66;102080.53;2204813;39;115687;-52
2021/05/31 07:30:17;;;;;;;;;;;;;;;23.98;47.27;102082.50;2206137;39;115444;-52
2021/05/31 07:31:50;;;;;;;;;;;;;;;23.97;47.22;102078.84;2206340;39;115143;-52
2021/05/31 07:33:23;;;;;;;;;;;;;;;23.97;47.44;102078.00;2197375;39;116264;-51
2021/05/31 07:34:57;;;;;;;;;;;;;;;23.97;47.22;102083.66;2202326;39;114614;-51
2021/05/31 07:36:30;;;;;;;;;;;;;;;23.96;47.29;102084.78;2204107;39;115610;-52
2021/05/31 07:38:04;;;;;;;;;;;;;;;23.96;47.08;102081.97;2212677;39;114728;-52
2021/05/31 07:39:37;;;;;;;;;;;;;;;23.94;47.08;102083.09;2200738;39;114560;-52
2021/05/31 07:41:10;;;;;;;;;;;;;;;23.93;47.08;102074.94;2204355;39;116040;-51
2021/05/31 07:42:42;;;;;;;;;;;;;;;23.92;47.37;102076.09;2208009;39;115550;-52
2021/05/31 07:44:16;;;;;;;;;;;;;;;23.92;47.32;102076.94;2207335;39;115106;-52
2021/05/31 07:45:49;;;;;;;;;;;;;;;23.92;47.07;102070.44;2205371;39;113937;-52
2021/05/31 07:47:21;;;;;;;;;;;;;;;23.91;47.11;102077.22;2205581;39;113783;-52
2021/05/31 07:48:54;;;;;;;;;;;;;;;23.90;47.31;102084.00;2204922;39;114003;-52
2021/05/31 07:50:29;;;;;;;;;;;;;;;23.88;47.10;102070.22;2199292;39;113879;-52
2021/05/31 07:53:37;;;;;;;;;;;;;;;23.87;47.19;102074.19;2205760;39;113919;-51
2021/05/31 07:55:11;;;;;;;;;;;;;;;23.86;47.45;102066.84;2208394;39;113957;-54
2021/05/31 07:56:44;;;;;;;;;;;;;;;23.87;47.31;102068.53;2203965;39;114105;-52
2021/05/31 07:58:16;;;;;;;;;;;;;;;23.85;47.76;102065.16;2200626;39;114099;-52
2021/05/31 07:59:58;;;;;;;;;;;;;;;23.86;47.39;102066.84;2207793;39;113916;-52
2021/05/31 08:01:30;;;;;;;;;;;;;;;23.84;47.63;102062.66;2206996;39;113605;-51
2021/05/31 08:03:03;;;;;;;;;;;;;;;23.82;47.85;102067.75;2212412;39;115153;-52
2021/05/31 08:04:35;;;;;;;;;;;;;;;23.82;47.99;102062.13;2205837;39;113915;-51